Time;durP1;ratioP1;P1;durP2;ratioP2;P2;SDS_P1;SDS_P2;PMS_P1;PMS_P2;Temp;Humidity;BMP_temperature;BMP_pressure;BME280_temperature;BME280_humidity;BME280_pressure;Samples;Min_cycle;Max_cycle;Signal;HPM_P1;HPM_P2
2023/09/29 00:01:38;;;;;;;28.08;5.45;;;20.50;99.90;;;;;;5107425;28;20099;-84
2023/09/29 00:04:05;;;;;;;28.58;5.82;;;20.50;99.90;;;;;;5105917;28;20031;-84
2023/09/29 00:06:32;;;;;;;27.63;5.63;;;20.50;99.90;;;;;;5091655;28;20038;-85
2023/09/29 00:08:59;;;;;;;28.00;6.57;;;20.40;99.90;;;;;;5109313;28;20020;-85
2023/09/29 00:11:25;;;;;;;28.73;6.73;;;20.50;99.90;;;;;;5109122;28;20514;-84
2023/09/29 00:13:51;;;;;;;39.53;6.97;;;20.30;99.90;;;;;;5108702;28;20051;-85
2023/09/29 00:16:16;;;;;;;31.65;6.40;;;20.30;99.90;;;;;;5110422;28;20066;-87
2023/09/29 00:18:42;;;;;;;37.92;7.68;;;20.40;99.90;;;;;;5109029;28;20031;-88
2023/09/29 00:21:08;;;;;;;30.02;6.22;;;20.30;99.90;;;;;;5109581;28;20023;-87
2023/09/29 00:23:35;;;;;;;35.95;7.85;;;20.20;99.90;;;;;;5090215;28;20028;-86
2023/09/29 00:26:00;;;;;;;32.88;6.70;;;20.20;99.90;;;;;;5109370;28;20337;-85
2023/09/29 00:28:27;;;;;;;34.22;7.03;;;20.10;99.90;;;;;;5091080;28;20115;-88
2023/09/29 00:30:53;;;;;;;39.30;8.05;;;20.10;99.90;;;;;;5109397;28;20077;-86
2023/09/29 00:33:18;;;;;;;32.63;7.65;;;20.10;99.90;;;;;;5108740;28;20453;-85
2023/09/29 00:35:44;;;;;;;34.92;7.85;;;20.20;99.90;;;;;;5108535;28;20039;-84
2023/09/29 00:38:09;;;;;;;37.80;7.47;;;20.10;99.90;;;;;;5108149;28;20031;-84
2023/09/29 00:40:35;;;;;;;36.58;8.20;;;20.10;99.90;;;;;;5109267;28;20148;-85
2023/09/29 00:43:02;;;;;;;29.70;6.78;;;20.10;99.90;;;;;;5089277;28;20489;-84
2023/09/29 00:45:28;;;;;;;34.07;7.13;;;20.00;99.90;;;;;;5109202;28;20031;-84
2023/09/29 00:47:57;;;;;;;37.50;8.75;;;20.10;99.90;;;;;;5109183;28;20729;-84
2023/09/29 00:50:26;;;;;;;41.17;7.95;;;20.10;99.90;;;;;;5090933;28;20039;-84
2023/09/29 00:52:53;;;;;;;37.63;7.18;;;20.10;99.90;;;;;;5108884;28;20022;-84
2023/09/29 00:55:24;;;;;;;36.67;7.85;;;20.10;99.90;;;;;;5109409;28;20023;-86
2023/09/29 00:57:51;;;;;;;38.97;7.53;;;20.00;99.90;;;;;;5110107;28;20016;-85
2023/09/29 01:02:56;;;;;;;38.70;7.45;;;19.90;99.90;;;;;;5108183;28;20024;-87
2023/09/29 01:05:21;;;;;;;44.55;7.97;;;20.00;99.90;;;;;;5109101;28;20556;-86
2023/09/29 01:07:48;;;;;;;36.15;7.10;;;20.00;99.90;;;;;;5109202;28;20055;-84
2023/09/29 01:10:13;;;;;;;33.75;6.88;;;20.10;99.90;;;;;;5108771;28;20683;-85
2023/09/29 01:12:40;;;;;;;28.52;6.82;;;20.00;99.90;;;;;;5089921;28;20037;-85
2023/09/29 01:15:06;;;;;;;41.92;7.35;;;20.00;99.90;;;;;;5109079;28;20035;-84
2023/09/29 01:17:32;;;;;;;33.22;6.47;;;20.00;99.90;;;;;;5108698;28;20031;-84
2023/09/29 01:19:57;;;;;;;31.42;7.40;;;20.00;99.90;;;;;;5108499;28;20444;-84
2023/09/29 01:22:24;;;;;;;34.58;6.53;;;20.00;99.90;;;;;;5112588;28;20487;-85
2023/09/29 01:24:49;;;;;;;25.25;5.85;;;19.90;99.90;;;;;;5075062;28;20031;-85
2023/09/29 01:27:15;;;;;;;36.78;7.40;;;20.00;99.90;;;;;;5092167;28;20511;-85
2023/09/29 01:29:44;;;;;;;31.92;6.80;;;20.00;99.90;;;;;;5073840;28;20045;-85
2023/09/29 01:32:14;;;;;;;28.73;5.78;;;20.00;99.90;;;;;;5102565;28;20443;-89
2023/09/29 01:34:39;;;;;;;25.38;5.10;;;19.90;99.90;;;;;;5110964;28;20023;-84
2023/09/29 01:37:05;;;;;;;26.35;5.45;;;20.00;99.90;;;;;;5112463;28;20181;-85
2023/09/29 01:39:31;;;;;;;28.65;5.57;;;19.90;99.90;;;;;;5093636;28;20074;-84
2023/09/29 01:41:57;;;;;;;21.25;4.47;;;19.90;99.90;;;;;;5112348;28;20020;-85
2023/09/29 01:44:22;;;;;;;25.70;4.38;;;19.80;99.90;;;;;;5112313;28;20484;-88
2023/09/29 01:46:49;;;;;;;24.65;4.60;;;19.90;99.90;;;;;;5112157;28;20027;-86
2023/09/29 01:49:15;;;;;;;24.42;4.70;;;19.80;99.90;;;;;;5112049;28;20028;-86
2023/09/29 01:51:44;;;;;;;19.23;4.10;;;19.90;99.90;;;;;;5093964;28;20030;-84
2023/09/29 01:54:09;;;;;;;16.42;4.10;;;19.90;99.90;;;;;;5092451;28;20016;-84
2023/09/29 01:56:35;;;;;;;20.75;4.20;;;19.90;99.90;;;;;;5093524;28;20490;-85
2023/09/29 01:59:02;;;;;;;18.25;3.70;;;19.90;99.90;;;;;;5093840;28;20491;-86
2023/09/29 02:01:28;;;;;;;22.08;3.47;;;19.80;99.90;;;;;;5093799;28;20055;-85
2023/09/29 02:03:53;;;;;;;18.58;3.25;;;19.80;99.90;;;;;;5093426;28;20027;-85
2023/09/29 02:06:19;;;;;;;18.67;3.40;;;19.90;99.90;;;;;;5093143;28;20541;-85
2023/09/29 02:08:45;;;;;;;22.20;3.25;;;19.80;99.90;;;;;;5111795;28;20024;-85
2023/09/29 02:11:10;;;;;;;19.80;3.67;;;19.80;99.90;;;;;;5111677;28;20077;-85
2023/09/29 02:13:36;;;;;;;12.00;2.42;;;19.80;99.90;;;;;;5092121;28;20028;-85
2023/09/29 02:16:08;;;;;;;15.68;3.80;;;19.80;99.90;;;;;;5111647;28;20027;-85
2023/09/29 02:18:34;;;;;;;16.17;2.58;;;19.80;99.90;;;;;;5111639;28;20051;-84
2023/09/29 02:20:59;;;;;;;13.55;2.42;;;19.70;99.90;;;;;;5092996;28;20062;-85
2023/09/29 02:23:25;;;;;;;9.70;2.70;;;19.70;99.90;;;;;;5105748;28;20073;-87
2023/09/29 02:25:51;;;;;;;10.60;2.40;;;19.60;99.90;;;;;;5091801;28;20032;-84
2023/09/29 02:28:17;;;;;;;10.95;2.33;;;19.60;99.90;;;;;;5093280;28;20651;-84
2023/09/29 02:30:42;;;;;;;14.15;2.35;;;19.60;99.90;;;;;;5111093;28;20032;-85
2023/09/29 02:33:08;;;;;;;9.07;2.55;;;19.60;99.90;;;;;;5108136;28;20055;-84
2023/09/29 02:35:33;;;;;;;8.98;2.13;;;19.60;99.90;;;;;;5110618;28;20035;-84
2023/09/29 02:37:59;;;;;;;19.48;3.03;;;19.60;99.90;;;;;;5093078;28;20505;-85
2023/09/29 02:40:25;;;;;;;12.30;2.22;;;19.60;99.90;;;;;;5111431;28;20036;-86
2023/09/29 02:42:51;;;;;;;8.00;2.05;;;19.50;99.90;;;;;;5110841;28;20012;-83
2023/09/29 02:45:17;;;;;;;13.27;2.55;;;19.50;99.90;;;;;;5110154;28;20031;-84
2023/09/29 02:47:47;;;;;;;11.07;1.98;;;19.50;99.90;;;;;;5092637;28;20023;-84
2023/09/29 02:50:12;;;;;;;9.48;2.13;;;19.50;99.90;;;;;;5092649;28;20116;-84
2023/09/29 02:52:39;;;;;;;7.72;2.10;;;19.50;99.90;;;;;;5110825;28;20055;-84
2023/09/29 02:55:07;;;;;;;6.20;1.75;;;19.60;99.90;;;;;;5110024;28;20028;-87
2023/09/29 02:57:33;;;;;;;13.02;2.00;;;19.60;99.90;;;;;;5110832;28;20065;-85
2023/09/29 02:59:59;;;;;;;9.20;2.00;;;19.60;99.90;;;;;;5111486;28;20035;-84
2023/09/29 03:02:24;;;;;;;8.23;2.28;;;19.60;99.90;;;;;;5111852;28;20382;-87
2023/09/29 03:04:51;;;;;;;9.07;1.77;;;19.60;99.90;;;;;;5109742;28;20035;-83
2023/09/29 03:07:17;;;;;;;9.30;2.20;;;19.60;99.90;;;;;;5110306;28;20445;-84
2023/09/29 03:09:42;;;;;;;9.40;2.03;;;19.60;99.90;;;;;;5110237;28;20032;-85
2023/09/29 03:12:08;;;;;;;7.43;1.92;;;19.60;99.90;;;;;;5110219;28;20064;-83
2023/09/29 03:14:34;;;;;;;8.27;2.08;;;19.60;99.90;;;;;;5109248;28;20024;-84
2023/09/29 03:17:00;;;;;;;6.65;1.85;;;19.60;99.90;;;;;;5109717;28;20483;-85
2023/09/29 03:19:31;;;;;;;9.13;1.90;;;19.60;99.90;;;;;;5092880;28;20039;-84
2023/09/29 03:21:58;;;;;;;6.40;2.00;;;19.60;99.90;;;;;;5108855;28;20024;-84
2023/09/29 03:24:27;;;;;;;7.00;1.90;;;19.60;99.90;;;;;;5089773;28;20529;-86
2023/09/29 03:26:53;;;;;;;5.35;1.75;;;19.60;99.90;;;;;;5108197;28;20482;-84
2023/09/29 03:29:19;;;;;;;7.93;1.80;;;19.60;99.90;;;;;;5108749;28;20008;-84
2023/09/29 03:31:46;;;;;;;9.98;1.95;;;19.60;99.90;;;;;;5105622;28;20368;-88
2023/09/29 03:34:13;;;;;;;5.40;1.60;;;19.50;99.90;;;;;;5116335;27;20020;-86
2023/09/29 03:36:39;;;;;;;6.65;1.50;;;19.50;99.90;;;;;;5110007;28;20038;-84
2023/09/29 03:39:06;;;;;;;7.20;1.67;;;19.40;99.90;;;;;;5109826;28;20031;-84
2023/09/29 03:41:33;;;;;;;9.25;1.70;;;19.40;99.90;;;;;;5091743;28;20042;-86
2023/09/29 03:43:59;;;;;;;5.28;1.58;;;19.40;99.90;;;;;;5109834;28;20024;-84
2023/09/29 03:46:24;;;;;;;5.45;1.60;;;19.30;99.90;;;;;;5109485;28;20536;-84
2023/09/29 03:48:50;;;;;;;4.75;1.67;;;19.20;99.90;;;;;;5110932;27;20110;-83
2023/09/29 03:51:26;;;;;;;7.82;1.67;;;19.20;99.90;;;;;;5130399;27;20076;-86
2023/09/29 03:53:55;;;;;;;3.35;1.17;;;19.20;99.90;;;;;;5104989;27;20306;-86
2023/09/29 03:56:23;;;;;;;7.70;1.73;;;19.20;99.90;;;;;;5101673;28;20052;-86
2023/09/29 03:58:49;;;;;;;3.73;1.70;;;19.20;99.90;;;;;;5085715;28;20046;-84
2023/09/29 04:01:15;;;;;;;8.48;1.63;;;19.10;99.90;;;;;;5109249;28;20031;-83
2023/09/29 04:03:42;;;;;;;3.60;1.33;;;19.00;99.90;;;;;;5109746;28;20019;-84
2023/09/29 04:06:08;;;;;;;4.13;1.48;;;19.10;99.90;;;;;;5080601;28;20023;-85
2023/09/29 04:08:33;;;;;;;4.57;1.55;;;19.00;99.90;;;;;;5107644;28;20016;-86
2023/09/29 04:10:59;;;;;;;4.80;1.45;;;19.00;99.90;;;;;;5110243;28;20399;-86
2023/09/29 04:13:24;;;;;;;5.53;1.80;;;19.00;99.90;;;;;;5107894;28;20034;-86
2023/09/29 04:15:51;;;;;;;3.53;1.38;;;19.00;99.90;;;;;;5107962;28;20514;-85
2023/09/29 04:18:16;;;;;;;4.22;1.42;;;19.00;99.90;;;;;;5107836;28;20059;-85
2023/09/29 04:20:42;;;;;;;6.38;2.33;;;18.90;99.90;;;;;;5107424;28;20070;-87
2023/09/29 04:23:08;;;;;;;3.72;1.75;;;18.90;99.90;;;;;;5106944;28;20035;-85
2023/09/29 04:25:34;;;;;;;3.70;1.35;;;18.90;99.90;;;;;;5103280;28;20114;-84
2023/09/29 04:28:00;;;;;;;4.05;1.40;;;18.90;99.90;;;;;;5104663;28;20399;-83
2023/09/29 04:30:25;;;;;;;3.33;1.45;;;18.90;99.90;;;;;;5103446;28;20039;-83
2023/09/29 04:32:52;;;;;;;4.82;1.70;;;18.90;99.90;;;;;;5108830;28;20368;-83
2023/09/29 04:35:18;;;;;;;3.60;1.30;;;18.90;99.90;;;;;;5109069;28;20019;-84
2023/09/29 04:37:44;;;;;;;5.15;1.80;;;18.90;99.90;;;;;;5086297;28;20395;-84
2023/09/29 04:40:10;;;;;;;4.97;1.58;;;19.00;99.90;;;;;;5089306;28;20148;-87
2023/09/29 04:42:36;;;;;;;5.20;1.63;;;19.00;99.90;;;;;;5108892;28;20109;-86
2023/09/29 04:45:02;;;;;;;3.50;1.40;;;19.00;99.90;;;;;;5110054;28;20028;-87
2023/09/29 04:47:27;;;;;;;6.45;1.40;;;19.00;99.90;;;;;;5109217;28;20034;-84
2023/09/29 04:49:53;;;;;;;2.15;1.20;;;19.00;99.90;;;;;;5108710;28;20023;-84
2023/09/29 04:52:20;;;;;;;6.78;1.58;;;19.10;99.90;;;;;;5100114;28;20080;-85
2023/09/29 04:54:46;;;;;;;2.65;1.13;;;19.10;99.90;;;;;;5083008;28;20380;-85
2023/09/29 04:57:12;;;;;;;5.47;1.55;;;19.10;99.90;;;;;;5090023;28;20498;-86
2023/09/29 04:59:37;;;;;;;6.85;2.00;;;19.10;99.90;;;;;;5110344;28;20040;-85
2023/09/29 05:02:03;;;;;;;5.65;1.60;;;19.10;99.90;;;;;;5102583;28;20429;-84
2023/09/29 05:04:29;;;;;;;3.85;1.35;;;19.00;99.90;;;;;;5108919;28;20071;-84
2023/09/29 05:06:54;;;;;;;5.53;1.50;;;19.00;99.90;;;;;;5112028;28;20536;-84
2023/09/29 05:09:20;;;;;;;2.55;1.38;;;19.00;99.90;;;;;;5110834;28;20070;-85
2023/09/29 05:11:46;;;;;;;3.25;1.00;;;19.00;99.90;;;;;;5092492;28;20128;-85
2023/09/29 05:14:11;;;;;;;5.00;1.35;;;18.90;99.90;;;;;;5109744;28;20039;-84
2023/09/29 05:16:37;;;;;;;3.20;1.15;;;18.90;99.90;;;;;;5111465;28;20020;-84
2023/09/29 05:19:03;;;;;;;2.88;1.30;;;18.80;99.90;;;;;;5094001;28;20036;-84
2023/09/29 05:21:28;;;;;;;3.20;1.13;;;18.80;99.90;;;;;;5094440;28;20024;-83
2023/09/29 05:23:54;;;;;;;4.72;1.10;;;18.80;99.90;;;;;;5112215;28;20062;-84
2023/09/29 05:26:19;;;;;;;1.88;1.00;;;18.80;99.90;;;;;;5112377;28;20019;-83
2023/09/29 05:28:45;;;;;;;2.83;1.10;;;18.70;99.90;;;;;;5112391;28;20402;-82
2023/09/29 05:31:11;;;;;;;5.40;1.30;;;18.80;99.90;;;;;;5096137;28;20476;-82
2023/09/29 05:33:37;;;;;;;4.72;1.42;;;18.80;99.90;;;;;;5093094;28;20435;-84
2023/09/29 05:36:03;;;;;;;2.92;1.40;;;18.80;99.90;;;;;;5074714;28;20021;-84
2023/09/29 05:38:29;;;;;;;3.63;1.20;;;18.80;99.90;;;;;;5091700;28;20030;-84
2023/09/29 05:40:54;;;;;;;5.72;1.58;;;18.80;99.90;;;;;;5092097;28;20027;-85
2023/09/29 05:43:20;;;;;;;4.03;1.40;;;18.80;99.90;;;;;;5111201;28;20104;-84
2023/09/29 05:45:47;;;;;;;3.15;1.38;;;18.70;99.90;;;;;;5111259;28;20546;-84
2023/09/29 05:48:13;;;;;;;4.75;1.40;;;18.80;99.90;;;;;;5110940;28;20028;-83
2023/09/29 05:50:38;;;;;;;4.03;1.35;;;18.80;99.90;;;;;;5109353;28;20411;-83
2023/09/29 05:53:04;;;;;;;3.25;1.20;;;18.80;99.90;;;;;;5094013;28;20368;-84
2023/09/29 05:55:30;;;;;;;2.67;1.17;;;18.80;99.90;;;;;;5089155;28;20023;-83
2023/09/29 05:57:56;;;;;;;5.30;2.22;;;18.80;99.90;;;;;;5109546;28;20059;-83
2023/09/29 06:00:24;;;;;;;4.65;1.45;;;18.80;99.90;;;;;;5110056;28;20118;-83
2023/09/29 06:02:50;;;;;;;4.15;1.83;;;18.80;99.90;;;;;;5091553;28;20027;-83
2023/09/29 06:05:15;;;;;;;7.35;1.65;;;18.80;99.90;;;;;;5108401;28;20036;-83
2023/09/29 06:07:41;;;;;;;5.82;1.88;;;18.80;99.90;;;;;;5109885;28;20030;-83
2023/09/29 06:10:07;;;;;;;7.43;1.75;;;18.80;99.90;;;;;;5107242;28;20372;-84
2023/09/29 06:12:33;;;;;;;6.88;2.00;;;18.80;99.90;;;;;;5077735;28;20111;-83
2023/09/29 06:14:59;;;;;;;8.82;2.20;;;18.80;99.90;;;;;;5106758;28;20134;-83
2023/09/29 06:17:25;;;;;;;7.35;2.28;;;18.80;99.90;;;;;;5106616;28;20024;-86
2023/09/29 06:19:51;;;;;;;14.18;2.35;;;18.90;99.90;;;;;;5088371;28;20051;-83
2023/09/29 06:22:17;;;;;;;5.10;1.70;;;18.90;99.90;;;;;;5108392;28;20020;-85
2023/09/29 06:24:44;;;;;;;7.30;1.65;;;18.90;99.90;;;;;;5109254;28;20028;-84
2023/09/29 06:27:13;;;;;;;8.77;1.80;;;18.80;99.90;;;;;;5091060;28;20023;-84
2023/09/29 06:29:39;;;;;;;5.82;1.90;;;18.90;99.90;;;;;;5109375;28;20069;-83
2023/09/29 06:32:09;;;;;;;5.78;1.90;;;18.80;99.90;;;;;;5111388;28;20062;-83
2023/09/29 06:34:35;;;;;;;5.45;1.80;;;18.80;99.90;;;;;;5110721;28;20028;-82
2023/09/29 06:37:01;;;;;;;8.68;2.25;;;18.80;99.90;;;;;;5091384;28;20027;-83
2023/09/29 06:39:27;;;;;;;7.80;1.73;;;18.80;99.90;;;;;;5108175;28;20047;-83
2023/09/29 06:41:53;;;;;;;9.38;1.88;;;18.80;99.90;;;;;;5107785;28;20099;-84
2023/09/29 06:44:18;;;;;;;9.20;2.20;;;18.80;99.90;;;;;;5108862;28;20176;-83
2023/09/29 06:46:44;;;;;;;5.95;1.70;;;18.80;99.90;;;;;;5089759;28;20022;-85
2023/09/29 06:49:10;;;;;;;10.85;2.00;;;18.80;99.90;;;;;;5108778;28;20028;-83
2023/09/29 06:51:36;;;;;;;8.38;1.98;;;18.80;99.90;;;;;;5108590;28;20107;-84
2023/09/29 06:54:02;;;;;;;7.32;1.95;;;18.80;99.90;;;;;;5104534;28;20111;-82
2023/09/29 06:56:28;;;;;;;7.00;1.85;;;18.90;99.90;;;;;;5108738;28;20027;-82
2023/09/29 06:58:57;;;;;;;8.00;2.15;;;18.80;99.90;;;;;;5091778;28;20088;-83
2023/09/29 07:01:24;;;;;;;6.95;2.08;;;18.80;99.90;;;;;;5091514;28;20020;-82
2023/09/29 07:03:50;;;;;;;7.72;2.20;;;18.90;99.90;;;;;;5109545;28;20026;-83
2023/09/29 07:06:15;;;;;;;5.82;2.47;;;18.80;99.90;;;;;;5091700;28;20019;-84
2023/09/29 07:08:41;;;;;;;8.75;2.25;;;18.90;99.90;;;;;;5091201;28;20482;-84
2023/09/29 07:11:07;;;;;;;5.22;1.95;;;18.90;99.90;;;;;;5110865;28;20028;-83
2023/09/29 07:13:33;;;;;;;6.68;2.22;;;18.90;99.90;;;;;;5108357;28;20032;-83
2023/09/29 07:15:58;;;;;;;7.95;2.63;;;19.00;99.90;;;;;;5109120;28;20098;-85
2023/09/29 07:18:24;;;;;;;10.48;2.72;;;19.00;99.90;;;;;;5090302;28;20055;-85
2023/09/29 07:20:52;;;;;;;7.03;1.98;;;19.00;99.90;;;;;;5090836;28;20027;-85
2023/09/29 07:23:21;;;;;;;5.82;2.38;;;19.00;99.90;;;;;;5108730;28;20031;-84
2023/09/29 07:25:47;;;;;;;10.65;2.30;;;19.00;99.90;;;;;;5109378;28;20027;-83
2023/09/29 07:28:14;;;;;;;8.25;2.30;;;19.00;99.90;;;;;;5092428;28;20050;-83
2023/09/29 07:30:47;;;;;;;10.05;2.25;;;19.00;99.90;;;;;;5110431;28;20072;-83
2023/09/29 07:33:12;;;;;;;7.95;2.00;;;19.00;99.90;;;;;;5090250;28;20020;-84
2023/09/29 07:35:38;;;;;;;7.72;2.05;;;19.10;99.90;;;;;;5091812;28;20211;-84
2023/09/29 07:38:04;;;;;;;5.55;2.10;;;19.10;99.90;;;;;;5109220;28;20023;-83
2023/09/29 07:40:32;;;;;;;7.72;2.30;;;19.20;99.90;;;;;;5090893;28;20027;-83
2023/09/29 07:42:57;;;;;;;4.72;1.60;;;19.20;99.90;;;;;;5090589;28;20027;-85
2023/09/29 07:45:23;;;;;;;7.57;2.38;;;19.10;99.90;;;;;;5109415;28;20052;-85
2023/09/29 07:47:49;;;;;;;6.57;2.00;;;19.10;99.90;;;;;;5091583;28;20435;-85
2023/09/29 07:50:14;;;;;;;3.40;1.73;;;19.10;99.90;;;;;;5109278;28;20031;-85
2023/09/29 07:52:40;;;;;;;6.47;1.90;;;19.10;99.90;;;;;;5108886;28;20180;-85
2023/09/29 07:55:07;;;;;;;5.95;1.60;;;19.10;99.90;;;;;;5109005;28;20368;-86
2023/09/29 07:57:33;;;;;;;5.95;2.13;;;19.10;99.90;;;;;;5108846;28;20254;-86
2023/09/29 07:59:59;;;;;;;8.18;2.10;;;19.10;99.90;;;;;;5101090;28;20077;-86
2023/09/29 08:02:26;;;;;;;6.65;1.98;;;19.10;99.90;;;;;;5101347;28;20023;-85
2023/09/29 08:04:52;;;;;;;8.70;1.77;;;19.10;99.90;;;;;;5088436;28;20032;-86
2023/09/29 08:07:19;;;;;;;4.28;1.70;;;19.10;99.90;;;;;;5071332;28;20450;-85
2023/09/29 08:09:45;;;;;;;7.82;1.92;;;19.20;99.90;;;;;;5090684;28;20368;-86
2023/09/29 08:12:11;;;;;;;4.28;1.77;;;19.10;99.90;;;;;;5107887;28;20020;-86
2023/09/29 08:14:37;;;;;;;8.40;2.20;;;19.10;99.90;;;;;;5090443;28;20031;-85
2023/09/29 08:17:02;;;;;;;6.18;2.28;;;19.20;99.90;;;;;;5108575;28;20024;-85
2023/09/29 08:19:29;;;;;;;7.57;1.95;;;19.30;99.90;;;;;;5089609;28;20407;-86
2023/09/29 08:21:55;;;;;;;5.55;1.60;;;19.20;99.90;;;;;;5090791;28;20024;-85
2023/09/29 08:24:22;;;;;;;6.15;2.03;;;19.20;99.90;;;;;;5090240;28;20024;-86
2023/09/29 08:26:47;;;;;;;6.88;1.63;;;19.30;99.90;;;;;;5108239;28;20032;-84
2023/09/29 08:29:16;;;;;;;5.55;1.98;;;19.20;99.90;;;;;;5109298;28;20736;-85
2023/09/29 08:31:42;;;;;;;5.35;1.88;;;19.30;99.90;;;;;;5093986;28;20023;-85
2023/09/29 08:34:08;;;;;;;5.95;1.80;;;19.20;99.90;;;;;;5113084;28;20016;-85
2023/09/29 08:36:33;;;;;;;4.78;1.67;;;19.30;99.90;;;;;;5093707;28;20445;-84
2023/09/29 08:38:59;;;;;;;6.10;2.03;;;19.30;99.90;;;;;;5112874;28;20032;-85
2023/09/29 08:41:29;;;;;;;10.45;2.42;;;19.40;99.90;;;;;;5112969;28;20057;-86
2023/09/29 08:43:55;;;;;;;10.70;3.30;;;19.20;99.90;;;;;;5112642;28;20384;-85
2023/09/29 08:46:21;;;;;;;14.82;3.65;;;18.50;99.90;;;;;;5094175;28;20057;-85
2023/09/29 08:48:47;;;;;;;12.48;3.70;;;18.40;99.90;;;;;;5111558;28;20130;-85
2023/09/29 08:51:15;;;;;;;14.07;3.75;;;18.10;99.90;;;;;;5095095;28;20015;-85
2023/09/29 08:53:42;;;;;;;11.35;3.85;;;18.10;99.90;;;;;;5111935;28;20031;-85
2023/09/29 08:56:12;;;;;;;13.73;3.40;;;18.10;99.90;;;;;;5093869;28;20137;-86
2023/09/29 08:58:38;;;;;;;17.42;4.10;;;18.00;99.90;;;;;;5093779;28;20031;-84
2023/09/29 09:01:05;;;;;;;15.38;3.95;;;18.10;99.90;;;;;;5094266;28;20552;-84
2023/09/29 09:03:31;;;;;;;14.02;4.00;;;18.10;99.90;;;;;;5111851;28;20452;-88
2023/09/29 09:05:56;;;;;;;13.10;4.47;;;18.10;99.90;;;;;;5111725;28;20038;-86
2023/09/29 09:08:23;;;;;;;13.18;3.88;;;18.10;99.90;;;;;;5112474;28;20031;-86
2023/09/29 09:11:00;;;;;;;15.68;4.43;;;18.20;99.90;;;;;;5093370;28;20019;-85
2023/09/29 09:13:26;;;;;;;11.70;3.92;;;18.30;99.90;;;;;;5093239;28;20023;-85
2023/09/29 09:16:00;;;;;;;15.00;4.32;;;18.20;99.90;;;;;;5111756;28;20024;-85
2023/09/29 09:18:29;;;;;;;17.10;4.40;;;18.20;99.90;;;;;;5093542;28;20038;-84
2023/09/29 09:20:56;;;;;;;13.90;4.25;;;18.00;99.90;;;;;;5112224;28;20031;-85
2023/09/29 09:23:23;;;;;;;22.58;5.50;;;18.20;99.90;;;;;;5093806;28;20112;-84
2023/09/29 09:25:49;;;;;;;14.60;4.30;;;18.40;99.90;;;;;;5110956;28;20487;-85
2023/09/29 09:28:18;;;;;;;18.83;5.35;;;18.40;99.90;;;;;;5111286;28;20024;-84
2023/09/29 09:30:50;;;;;;;17.58;4.50;;;18.50;99.90;;;;;;5093918;28;20024;-85
2023/09/29 09:33:23;;;;;;;13.07;4.40;;;18.50;99.90;;;;;;5112685;28;20034;-85
2023/09/29 09:35:51;;;;;;;14.82;4.72;;;18.70;99.90;;;;;;5111636;28;20023;-86
2023/09/29 09:38:18;;;;;;;15.93;4.88;;;18.70;99.90;;;;;;5111801;28;20031;-86
2023/09/29 09:40:44;;;;;;;18.20;4.72;;;18.60;99.90;;;;;;5093480;28;20498;-85
2023/09/29 09:43:10;;;;;;;16.30;4.78;;;18.70;99.90;;;;;;5093095;28;20022;-86
2023/09/29 09:45:42;;;;;;;18.35;5.28;;;18.90;99.90;;;;;;5109921;28;20483;-85
2023/09/29 09:48:09;;;;;;;22.38;5.53;;;18.90;99.90;;;;;;5093276;28;20695;-85
2023/09/29 09:50:36;;;;;;;15.02;5.13;;;19.10;99.90;;;;;;5111168;28;20144;-85
2023/09/29 09:53:05;;;;;;;20.73;5.03;;;19.00;99.90;;;;;;5092357;28;20030;-84
2023/09/29 09:55:44;;;;;;;16.25;4.38;;;19.00;99.90;;;;;;5093002;28;20091;-84
2023/09/29 09:58:15;;;;;;;16.83;4.97;;;19.00;99.90;;;;;;5092826;28;20036;-84
2023/09/29 10:00:52;;;;;;;16.00;5.00;;;19.00;99.90;;;;;;5110830;28;20051;-85
2023/09/29 10:03:20;;;;;;;19.75;4.95;;;19.00;99.90;;;;;;5111149;28;20458;-84
2023/09/29 10:05:52;;;;;;;16.58;4.90;;;19.20;99.90;;;;;;5093193;28;20410;-84
2023/09/29 10:08:30;;;;;;;20.92;5.28;;;19.30;99.90;;;;;;5111854;28;20081;-85
2023/09/29 10:11:11;;;;;;;19.33;5.85;;;19.50;99.90;;;;;;5100127;28;20020;-86
2023/09/29 10:13:37;;;;;;;17.98;5.57;;;19.40;99.90;;;;;;5085939;28;20020;-88
2023/09/29 10:16:05;;;;;;;13.88;4.93;;;19.40;99.90;;;;;;5093116;28;20027;-85
2023/09/29 10:18:33;;;;;;;14.18;5.60;;;19.30;99.90;;;;;;5109857;28;20112;-87
2023/09/29 10:21:09;;;;;;;22.73;5.93;;;19.30;99.90;;;;;;5110968;28;20020;-86
2023/09/29 10:23:50;;;;;;;17.45;5.35;;;19.30;99.90;;;;;;5092644;28;20031;-86
2023/09/29 10:26:16;;;;;;;19.42;5.78;;;19.40;99.90;;;;;;5110703;28;20027;-85
2023/09/29 10:28:42;;;;;;;15.57;5.25;;;19.40;99.90;;;;;;5110762;28;20031;-85
2023/09/29 10:31:10;;;;;;;21.02;6.20;;;19.40;99.90;;;;;;5110590;28;20032;-88
2023/09/29 10:33:54;;;;;;;17.08;5.35;;;19.20;99.90;;;;;;5110971;28;20474;-86
2023/09/29 10:36:27;;;;;;;19.08;6.28;;;19.00;99.90;;;;;;5092728;28;20023;-87
2023/09/29 10:38:59;;;;;;;18.15;5.45;;;19.10;99.90;;;;;;5091602;28;20031;-87
2023/09/29 10:41:28;;;;;;;19.75;6.35;;;19.20;99.90;;;;;;5091799;28;20047;-86
2023/09/29 10:44:00;;;;;;;17.92;6.03;;;19.30;99.90;;;;;;5092470;28;20065;-85
2023/09/29 10:46:25;;;;;;;16.55;5.40;;;19.10;99.90;;;;;;5109827;28;20110;-86
2023/09/29 10:48:53;;;;;;;25.98;6.40;;;19.10;99.90;;;;;;5092789;28;20450;-87
2023/09/29 10:51:30;;;;;;;18.17;6.07;;;19.00;99.90;;;;;;5112177;28;20026;-86
2023/09/29 10:54:02;;;;;;;21.70;5.82;;;19.00;99.90;;;;;;5089296;28;20031;-85
2023/09/29 10:56:28;;;;;;;18.38;5.50;;;19.00;99.90;;;;;;5090675;28;20089;-86
2023/09/29 10:58:55;;;;;;;16.15;5.35;;;18.90;99.90;;;;;;5110618;28;20110;-86
2023/09/29 11:01:32;;;;;;;20.25;6.00;;;19.10;99.90;;;;;;5111364;28;20376;-86
2023/09/29 11:03:59;;;;;;;16.67;5.78;;;19.10;99.90;;;;;;5091800;28;20028;-86
2023/09/29 11:06:24;;;;;;;18.83;5.75;;;19.00;99.90;;;;;;5109384;28;20020;-86
2023/09/29 11:08:55;;;;;;;18.60;5.57;;;19.20;99.90;;;;;;5111198;28;20394;-87
2023/09/29 11:11:24;;;;;;;17.40;5.60;;;19.30;99.90;;;;;;5111062;28;20020;-87
2023/09/29 11:13:57;;;;;;;17.40;5.72;;;19.40;99.90;;;;;;5093195;28;20471;-87
2023/09/29 11:16:27;;;;;;;18.10;5.68;;;19.40;99.90;;;;;;5110478;28;20020;-85
2023/09/29 11:18:57;;;;;;;30.20;9.00;;;19.40;99.90;;;;;;5109421;28;20042;-86
2023/09/29 11:21:36;;;;;;;56.80;15.43;;;19.60;99.90;;;;;;5091992;28;20110;-85
2023/09/29 11:24:18;;;;;;;27.40;7.55;;;19.70;99.90;;;;;;5110022;28;20023;-85
2023/09/29 11:26:46;;;;;;;17.63;5.40;;;19.60;99.90;;;;;;5086378;28;20032;-87
2023/09/29 11:29:28;;;;;;;15.57;5.68;;;19.60;99.90;;;;;;5110133;28;20383;-86
2023/09/29 11:31:54;;;;;;;25.80;5.55;;;19.40;99.90;;;;;;5092134;28;20023;-86
2023/09/29 11:34:20;;;;;;;14.10;5.32;;;19.60;99.90;;;;;;5092564;28;20027;-87
2023/09/29 11:36:48;;;;;;;14.13;5.43;;;19.50;99.90;;;;;;5091580;28;20515;-87
2023/09/29 11:39:17;;;;;;;15.93;5.40;;;19.60;99.90;;;;;;5108727;28;20388;-87
2023/09/29 11:41:44;;;;;;;18.00;6.00;;;19.60;99.90;;;;;;5088451;28;20066;-85
2023/09/29 11:44:09;;;;;;;17.23;5.68;;;19.70;99.90;;;;;;5101959;28;20108;-86
2023/09/29 11:46:36;;;;;;;16.33;5.10;;;19.90;99.90;;;;;;5071040;28;20466;-85
2023/09/29 11:49:02;;;;;;;16.50;5.38;;;20.00;99.90;;;;;;5102529;28;20507;-85
2023/09/29 11:51:27;;;;;;;19.25;5.53;;;20.00;99.90;;;;;;5109287;28;20036;-86
2023/09/29 11:53:54;;;;;;;17.88;5.50;;;19.90;99.90;;;;;;5092126;28;20406;-86
2023/09/29 11:56:20;;;;;;;17.70;5.63;;;19.90;99.90;;;;;;5090810;28;20054;-87
2023/09/29 11:58:46;;;;;;;15.07;5.55;;;19.90;99.90;;;;;;5090772;28;20042;-86
2023/09/29 12:01:12;;;;;;;18.58;5.68;;;20.00;99.90;;;;;;5090368;28;20055;-87
2023/09/29 12:03:39;;;;;;;22.13;6.00;;;20.10;99.90;;;;;;5088928;28;20059;-87
2023/09/29 12:06:05;;;;;;;13.80;5.28;;;20.30;99.90;;;;;;5108103;28;20386;-87
2023/09/29 12:08:31;;;;;;;12.00;5.13;;;;;;;;;;5109036;28;20034;-89
2023/09/29 12:10:57;;;;;;;16.65;5.72;;;;;;;;;;5109142;28;20028;-89
2023/09/29 12:13:23;;;;;;;18.25;6.20;;;;;;;;;;5090941;28;20548;-87
2023/09/29 12:15:49;;;;;;;18.10;5.60;;;;;;;;;;5090337;28;20027;-86
2023/09/29 12:18:15;;;;;;;19.67;5.03;;;;;;;;;;5091033;28;20513;-87
2023/09/29 12:20:41;;;;;;;19.75;6.03;;;;;;;;;;5096283;28;20047;-86
2023/09/29 12:23:08;;;;;;;16.08;5.57;;;;;;;;;;5071003;28;20047;-86
2023/09/29 12:25:35;;;;;;;17.08;4.93;;;;;;;;;;5087046;28;20553;-87
2023/09/29 12:28:03;;;;;;;17.00;5.30;;;;;;;;;;5107409;28;20019;-87
2023/09/29 12:30:29;;;;;;;;;;;;;;;;;;5107350;28;20023;-86
2023/09/29 12:32:55;;;;;;;15.20;5.38;;;;;;;;;;5110055;28;19982;-86
2023/09/29 12:35:21;;;;;;;18.02;5.55;;;;;;;;;;5108924;28;20020;-85
2023/09/29 12:37:47;;;;;;;17.67;5.75;;;;;;;;;;5108591;28;20046;-85
2023/09/29 12:40:14;;;;;;;20.08;5.47;;;;;;;;;;5090669;28;20566;-86
2023/09/29 12:42:46;;;;;;;14.02;4.82;;;;;;;;;;5108974;28;20028;-85
2023/09/29 12:45:13;;;;;;;17.00;5.68;;;;;;;;;;5108887;28;20023;-85
2023/09/29 12:47:39;;;;;;;11.23;4.43;;;;;;;;;;5104689;28;20061;-87
2023/09/29 12:50:07;;;;;;;13.98;4.78;;;;;;;;;;5090162;28;20118;-86